Humaita, Brazil
Current Conditions -  °F | °C
As of 3:00 PM on Friday 28 Nov 2014 (Local Time) from SBPV Reporting Station
Scattered Clouds Scattered Clouds  
Wind Chill: 84°   Ceiling: Unl
Heat Index: 88°   Visibility: 6mi
Dew Point: 70°   Wind: 2mph
Humidity: 62%   Direction: 70°ENE
Pressure: 29.77"   Gusts: NA
Location:  7.51°S, 63.03°W
Report Text: SBPV 281900Z 07002KT 9999 SCT023 FEW025TCU SCT100 29/21 Q1008
Loading
Personal Weather Stations






























Interactive Weather Map New forecast layout! Learn more

10-Day Weather Forecast

Advertisements
Track Severe Weather on mobile